Time;durP1;ratioP1;P1;durP2;ratioP2;P2;SDS_P1;SDS_P2;PMS_P1;PMS_P2;Temp;Humidity;BMP_temperature;BMP_pressure;BME280_temperature;BME280_humidity;BME280_pressure;Samples;Min_cycle;Max_cycle;Signal;HPM_P1;HPM_P2
2022/08/02 00:02:25;;;;;;;3.95;1.42;;;26.00;54.90;;;;;;4953458;29;20023;-79
2022/08/02 00:04:51;;;;;;;3.75;1.70;;;25.90;56.30;;;;;;4959399;28;20049;-79
2022/08/02 00:07:16;;;;;;;4.28;2.00;;;25.90;56.50;;;;;;4968770;28;20502;-79
2022/08/02 00:09:43;;;;;;;4.05;2.05;;;25.90;57.60;;;;;;4969061;28;20019;-79
2022/08/02 00:12:09;;;;;;;6.68;2.45;;;25.80;57.70;;;;;;4956680;29;20026;-79
2022/08/02 00:14:35;;;;;;;4.78;1.90;;;25.80;58.70;;;;;;4957069;29;20110;-79
2022/08/02 00:17:01;;;;;;;7.25;2.17;;;25.70;57.90;;;;;;4956997;29;20050;-79
2022/08/02 00:19:27;;;;;;;7.85;2.00;;;25.70;59.00;;;;;;4956459;29;20031;-79
2022/08/02 00:21:53;;;;;;;5.18;1.90;;;25.60;59.30;;;;;;4956695;29;20043;-79
2022/08/02 00:24:18;;;;;;;3.33;2.35;;;25.60;60.40;;;;;;4956057;29;20070;-79
2022/08/02 00:26:44;;;;;;;4.85;2.25;;;25.50;60.90;;;;;;4956409;29;20035;-79
2022/08/02 00:29:09;;;;;;;3.65;2.00;;;25.30;62.50;;;;;;4974101;28;20023;-79
2022/08/02 00:31:35;;;;;;;6.47;2.63;;;25.10;63.20;;;;;;4975755;28;20038;-79
2022/08/02 00:34:01;;;;;;;8.68;2.13;;;25.00;64.20;;;;;;4975522;28;20058;-79
2022/08/02 00:36:27;;;;;;;4.30;2.65;;;25.10;64.10;;;;;;4958478;28;20094;-79
2022/08/02 00:38:52;;;;;;;3.83;2.45;;;24.90;66.00;;;;;;4956804;29;20068;-79
2022/08/02 00:41:20;;;;;;;4.75;2.40;;;24.90;66.10;;;;;;4956412;29;20475;-79
2022/08/02 00:43:47;;;;;;;8.20;2.17;;;25.00;66.00;;;;;;4956599;29;20031;-79
2022/08/02 00:46:14;;;;;;;4.97;2.33;;;24.80;67.60;;;;;;4956180;29;20078;-79
2022/08/02 00:48:39;;;;;;;6.20;2.60;;;24.80;68.10;;;;;;4956854;29;20090;-80
2022/08/02 00:51:05;;;;;;;4.57;2.40;;;24.80;69.30;;;;;;4955125;28;20496;-79
2022/08/02 00:53:31;;;;;;;9.65;2.50;;;24.90;69.20;;;;;;4956272;29;20480;-79
2022/08/02 00:55:57;;;;;;;6.10;2.20;;;24.80;70.10;;;;;;4956056;29;20031;-79
2022/08/02 00:58:23;;;;;;;6.35;2.80;;;24.70;72.20;;;;;;4956005;29;20035;-80
2022/08/02 01:00:49;;;;;;;5.72;2.45;;;24.70;71.70;;;;;;4956159;29;20028;-80
2022/08/02 01:03:15;;;;;;;9.15;2.72;;;24.70;72.70;;;;;;4956420;29;20570;-80
2022/08/02 01:05:40;;;;;;;6.53;2.78;;;24.60;74.70;;;;;;4955619;29;20058;-80
2022/08/02 01:08:06;;;;;;;8.02;3.10;;;24.50;77.70;;;;;;4955931;29;20027;-80
2022/08/02 01:10:32;;;;;;;7.35;2.78;;;24.20;80.30;;;;;;4955959;29;20023;-79
2022/08/02 01:12:58;;;;;;;8.15;2.85;;;24.10;82.50;;;;;;4956345;28;20016;-79
2022/08/02 01:15:25;;;;;;;7.30;2.92;;;24.10;84.10;;;;;;4956458;28;20039;-80
2022/08/02 01:18:08;;;;;;;9.10;2.92;;;24.30;83.20;;;;;;4956130;28;20376;-79
2022/08/02 01:21:02;;;;;;;4.75;2.72;;;24.30;84.50;;;;;;4955478;29;20029;-79
2022/08/02 01:24:06;;;;;;;6.07;2.70;;;24.30;85.80;;;;;;4955518;29;20397;-79
2022/08/02 01:26:50;;;;;;;5.90;2.75;;;24.10;88.30;;;;;;4955031;29;20507;-80
2022/08/02 01:29:24;;;;;;;6.43;2.90;;;24.20;89.10;;;;;;4954844;28;20026;-80
2022/08/02 01:32:08;;;;;;;6.25;3.17;;;24.00;90.60;;;;;;4969348;28;20027;-79
2022/08/02 01:34:49;;;;;;;5.13;3.15;;;23.90;92.20;;;;;;4973801;28;20023;-79
2022/08/02 01:37:23;;;;;;;6.60;2.70;;;23.70;93.10;;;;;;4919329;29;20118;-79
2022/08/02 01:39:56;;;;;;;7.32;3.00;;;23.90;93.00;;;;;;4943002;29;20035;-80
2022/08/02 01:42:25;;;;;;;5.50;2.97;;;23.90;93.30;;;;;;4938238;29;20058;-79
2022/08/02 01:44:52;;;;;;;8.07;3.42;;;23.90;94.00;;;;;;4955220;28;20464;-80
2022/08/02 01:47:27;;;;;;;6.97;3.25;;;24.00;94.10;;;;;;4955132;29;20059;-79
2022/08/02 01:49:56;;;;;;;10.43;3.53;;;24.10;94.60;;;;;;4955283;29;20050;-79
2022/08/02 01:52:25;;;;;;;5.90;3.20;;;23.70;96.60;;;;;;4954464;28;20047;-79
2022/08/02 01:55:04;;;;;;;10.90;3.50;;;23.90;96.50;;;;;;4954876;29;20090;-79
2022/08/02 01:57:35;;;;;;;8.15;3.40;;;23.60;98.50;;;;;;4937598;29;20027;-79
2022/08/02 02:00:07;;;;;;;7.60;2.90;;;23.60;98.70;;;;;;4955217;29;20043;-79
2022/08/02 02:02:35;;;;;;;5.60;2.97;;;23.80;98.50;;;;;;4954652;29;20024;-79
2022/08/02 02:05:02;;;;;;;7.30;3.40;;;23.70;98.70;;;;;;4954724;29;20028;-79
2022/08/02 02:07:30;;;;;;;6.50;3.15;;;23.60;99.70;;;;;;4937464;29;20503;-79
2022/08/02 02:09:58;;;;;;;12.93;3.40;;;23.70;99.10;;;;;;4954927;29;20019;-79
2022/08/02 02:12:24;;;;;;;6.72;3.22;;;23.80;99.20;;;;;;4954609;29;20479;-79
2022/08/02 02:14:52;;;;;;;6.47;3.13;;;23.70;99.70;;;;;;4954780;29;20027;-79
2022/08/02 02:17:22;;;;;;;5.75;3.85;;;23.70;99.80;;;;;;4954562;29;20218;-79
2022/08/02 02:19:50;;;;;;;8.05;3.20;;;23.50;99.90;;;;;;4954688;29;20547;-80
2022/08/02 02:22:15;;;;;;;8.20;3.42;;;23.30;99.90;;;;;;4937342;29;20027;-79
2022/08/02 02:24:41;;;;;;;8.80;3.63;;;23.40;99.90;;;;;;4937245;29;20038;-79
2022/08/02 02:27:10;;;;;;;9.93;3.55;;;23.30;99.90;;;;;;4954726;29;20024;-80
2022/08/02 02:29:41;;;;;;;7.60;3.60;;;23.30;99.90;;;;;;4954267;28;20031;-79
2022/08/02 02:32:07;;;;;;;5.97;3.60;;;23.10;99.90;;;;;;4954205;29;20098;-80
2022/08/02 02:34:36;;;;;;;8.00;2.90;;;23.10;99.90;;;;;;4954074;28;20174;-79
2022/08/02 02:37:07;;;;;;;7.25;3.38;;;23.10;99.90;;;;;;4954905;29;20023;-79
2022/08/02 02:39:34;;;;;;;10.65;3.13;;;23.10;99.90;;;;;;4953741;29;20042;-79
2022/08/02 02:42:04;;;;;;;6.35;3.17;;;23.20;99.90;;;;;;4937127;29;20038;-79
2022/08/02 02:44:32;;;;;;;11.98;3.30;;;23.30;99.90;;;;;;4937241;29;20038;-79
2022/08/02 02:46:59;;;;;;;9.27;2.78;;;23.10;99.90;;;;;;4953979;29;20030;-79
2022/08/02 02:49:26;;;;;;;7.90;3.47;;;23.20;99.90;;;;;;4953979;29;20082;-79
2022/08/02 02:51:54;;;;;;;8.20;3.70;;;23.00;99.90;;;;;;4953886;29;20507;-79
2022/08/02 02:54:22;;;;;;;8.23;3.08;;;23.10;99.90;;;;;;4954264;29;20411;-79
2022/08/02 02:56:49;;;;;;;4.78;2.95;;;23.10;99.90;;;;;;4953767;29;20027;-79
2022/08/02 02:59:17;;;;;;;3.78;2.80;;;23.00;99.90;;;;;;4954078;29;20027;-79
2022/08/02 03:01:43;;;;;;;5.30;3.20;;;22.90;99.90;;;;;;4953679;29;20539;-79
2022/08/02 03:04:10;;;;;;;6.50;2.88;;;22.90;99.90;;;;;;4954064;28;20035;-79
2022/08/02 03:06:36;;;;;;;8.10;3.20;;;22.70;99.90;;;;;;4953853;28;20020;-79
2022/08/02 03:09:03;;;;;;;6.95;3.47;;;22.70;99.90;;;;;;4953965;29;20051;-79
2022/08/02 03:11:30;;;;;;;5.13;3.17;;;22.80;99.90;;;;;;4953535;29;20023;-79
2022/08/02 03:13:58;;;;;;;6.55;2.80;;;22.60;99.90;;;;;;4953716;29;20464;-79
2022/08/02 03:16:27;;;;;;;10.60;3.28;;;22.50;99.90;;;;;;4953945;29;20408;-79
2022/08/02 03:18:53;;;;;;;9.20;3.67;;;22.60;99.90;;;;;;4953785;29;20023;-79
2022/08/02 03:21:19;;;;;;;9.77;3.10;;;22.50;99.90;;;;;;4953804;29;20024;-79
2022/08/02 03:23:45;;;;;;;8.35;3.30;;;22.50;99.90;;;;;;4953329;29;20031;-79
2022/08/02 03:26:12;;;;;;;8.23;2.70;;;22.40;99.90;;;;;;4953647;29;20028;-79
2022/08/02 03:28:38;;;;;;;5.85;3.25;;;22.40;99.90;;;;;;4954000;29;20428;-79
2022/08/02 03:31:03;;;;;;;6.40;3.20;;;22.50;99.90;;;;;;4953424;29;20050;-79
2022/08/02 03:33:31;;;;;;;5.40;3.35;;;22.60;99.90;;;;;;4953529;29;20060;-79
2022/08/02 03:36:02;;;;;;;6.97;3.08;;;22.60;99.90;;;;;;4953872;29;20071;-79
2022/08/02 03:38:31;;;;;;;6.45;3.17;;;22.60;99.90;;;;;;4953351;28;20533;-79
2022/08/02 03:41:00;;;;;;;7.70;3.28;;;22.30;99.90;;;;;;4953255;28;20491;-79
2022/08/02 03:43:27;;;;;;;8.05;3.20;;;22.20;99.90;;;;;;4956203;29;20035;-79
2022/08/02 03:45:54;;;;;;;9.52;3.45;;;22.40;99.90;;;;;;4957437;29;20066;-79
2022/08/02 03:48:20;;;;;;;7.53;3.10;;;22.50;99.90;;;;;;4957675;29;20110;-80
2022/08/02 03:50:47;;;;;;;6.15;3.15;;;22.30;99.90;;;;;;4957299;28;20503;-79
2022/08/02 03:53:15;;;;;;;7.38;3.30;;;22.30;99.90;;;;;;4956685;28;20032;-79
2022/08/02 03:55:41;;;;;;;11.00;3.30;;;22.20;99.90;;;;;;4957164;29;20044;-79
2022/08/02 03:58:07;;;;;;;7.85;3.22;;;22.20;99.90;;;;;;4956616;29;20034;-79
2022/08/02 04:00:33;;;;;;;6.20;2.72;;;22.10;99.90;;;;;;4957284;28;20032;-79
2022/08/02 04:02:59;;;;;;;7.60;3.00;;;22.00;99.90;;;;;;4957199;29;20065;-79
2022/08/02 04:05:25;;;;;;;5.35;3.15;;;21.70;99.90;;;;;;4939779;29;20377;-79
2022/08/02 04:07:51;;;;;;;8.68;3.22;;;21.90;99.90;;;;;;4956976;29;20395;-79
2022/08/02 04:10:17;;;;;;;6.10;3.15;;;22.00;99.90;;;;;;4957754;29;20020;-79
2022/08/02 04:12:43;;;;;;;5.88;2.83;;;21.90;99.90;;;;;;4956610;29;20035;-79
2022/08/02 04:15:11;;;;;;;7.03;3.45;;;22.00;99.90;;;;;;4956846;29;20079;-79
2022/08/02 04:17:44;;;;;;;9.35;3.20;;;21.90;99.90;;;;;;4956495;29;20035;-79
2022/08/02 04:20:18;;;;;;;9.15;3.72;;;22.00;99.90;;;;;;4957312;29;20026;-79
2022/08/02 04:22:53;;;;;;;4.60;2.70;;;21.90;99.90;;;;;;4956633;29;20031;-80
2022/08/02 04:25:21;;;;;;;9.63;3.10;;;21.90;99.90;;;;;;4956589;29;20484;-79
2022/08/02 04:27:47;;;;;;;12.30;3.60;;;21.80;99.90;;;;;;4956353;29;20027;-79
2022/08/02 04:30:16;;;;;;;8.55;3.22;;;21.80;99.90;;;;;;4957207;29;20059;-79
2022/08/02 04:32:43;;;;;;;9.05;3.00;;;21.40;99.90;;;;;;4956498;29;20027;-79
2022/08/02 04:35:09;;;;;;;7.80;3.45;;;21.60;99.90;;;;;;4956644;29;20110;-80
2022/08/02 04:37:37;;;;;;;6.15;3.20;;;21.70;99.90;;;;;;4956489;29;20500;-79
2022/08/02 04:40:11;;;;;;;9.27;3.35;;;21.60;99.90;;;;;;4956595;29;20488;-79
2022/08/02 04:42:37;;;;;;;8.25;3.08;;;21.50;99.90;;;;;;4938840;29;20035;-79
2022/08/02 04:45:04;;;;;;;7.15;3.10;;;21.70;99.90;;;;;;4965866;28;20019;-79
2022/08/02 04:47:30;;;;;;;7.90;3.15;;;21.70;99.90;;;;;;4960033;28;20034;-79
2022/08/02 04:49:55;;;;;;;7.97;3.00;;;21.50;99.90;;;;;;4955787;29;20032;-78
2022/08/02 04:52:21;;;;;;;8.05;3.50;;;21.40;99.90;;;;;;4956439;29;20043;-79
2022/08/02 04:54:47;;;;;;;11.75;3.25;;;21.30;99.90;;;;;;4955640;28;20483;-79
2022/08/02 04:59:56;;;;;;;7.90;3.47;;;21.50;99.90;;;;;;4956616;29;20595;-79
2022/08/02 05:02:22;;;;;;;5.80;3.35;;;21.60;99.90;;;;;;4938537;29;20447;-79
2022/08/02 05:04:48;;;;;;;5.97;3.13;;;21.60;99.90;;;;;;4955278;29;20451;-79
2022/08/02 05:07:13;;;;;;;9.52;2.80;;;21.50;99.90;;;;;;4955607;29;20530;-79
2022/08/02 05:09:39;;;;;;;12.63;3.15;;;21.40;99.90;;;;;;4961238;28;20027;-79
2022/08/02 05:12:06;;;;;;;8.15;3.60;;;21.40;99.90;;;;;;4955560;29;20028;-79
2022/08/02 05:14:32;;;;;;;4.90;3.40;;;21.40;99.90;;;;;;4956068;29;20042;-79
2022/08/02 05:16:57;;;;;;;9.00;3.58;;;21.50;99.90;;;;;;4939003;29;20035;-79
2022/08/02 05:19:23;;;;;;;7.18;3.00;;;21.60;99.90;;;;;;4955907;29;20498;-79
2022/08/02 05:21:48;;;;;;;8.32;3.50;;;21.70;99.90;;;;;;4955453;29;20039;-79
2022/08/02 05:24:14;;;;;;;8.35;3.25;;;21.70;99.90;;;;;;4963249;28;20139;-79
2022/08/02 05:26:40;;;;;;;9.85;3.72;;;21.70;99.90;;;;;;4974608;28;20493;-79
2022/08/02 05:29:05;;;;;;;8.82;3.30;;;21.70;99.90;;;;;;4963877;28;20038;-79
2022/08/02 05:31:31;;;;;;;7.20;3.13;;;21.60;99.90;;;;;;4963535;28;20034;-79
2022/08/02 05:33:57;;;;;;;6.03;3.08;;;21.60;99.90;;;;;;4958468;28;20027;-79
2022/08/02 05:36:22;;;;;;;7.85;3.42;;;21.70;99.90;;;;;;4968526;28;20019;-79
2022/08/02 05:38:51;;;;;;;13.65;3.65;;;21.60;99.90;;;;;;4962942;28;20149;-79
2022/08/02 05:41:18;;;;;;;5.50;3.30;;;21.70;99.90;;;;;;4963113;28;20031;-79
2022/08/02 05:43:44;;;;;;;9.57;3.42;;;21.80;99.90;;;;;;4962937;28;20024;-79
2022/08/02 05:46:10;;;;;;;9.98;3.58;;;21.60;99.90;;;;;;4966145;28;20018;-79
2022/08/02 05:48:36;;;;;;;9.95;3.80;;;21.70;99.90;;;;;;4960893;28;20396;-79
2022/08/02 05:51:12;;;;;;;9.27;3.58;;;21.70;99.90;;;;;;4962196;28;20051;-79
2022/08/02 05:54:10;;;;;;;11.38;4.00;;;21.80;99.90;;;;;;4963115;28;20140;-81
2022/08/02 05:57:13;;;;;;;8.27;3.47;;;21.80;99.90;;;;;;4893008;28;20039;-78
2022/08/02 06:00:08;;;;;;;10.57;3.20;;;21.60;99.90;;;;;;4962424;28;20463;-81
2022/08/02 06:02:57;;;;;;;9.38;3.25;;;21.70;99.90;;;;;;4964575;28;20043;-80
2022/08/02 06:05:26;;;;;;;8.73;3.42;;;21.90;99.90;;;;;;4940243;28;20027;-79
2022/08/02 06:07:55;;;;;;;6.78;3.35;;;21.90;99.90;;;;;;4954545;28;20015;-79
2022/08/02 06:10:22;;;;;;;15.60;3.50;;;21.70;99.90;;;;;;4954151;28;20027;-80
2022/08/02 06:12:55;;;;;;;9.82;3.60;;;21.90;99.90;;;;;;4970942;28;20110;-79
2022/08/02 06:15:20;;;;;;;15.50;3.65;;;21.90;99.90;;;;;;4969463;28;20094;-79
2022/08/02 06:17:46;;;;;;;18.67;4.22;;;21.90;99.90;;;;;;4963344;28;20113;-79
2022/08/02 06:20:13;;;;;;;11.88;3.75;;;22.00;99.90;;;;;;4974327;28;20108;-79
2022/08/02 06:22:44;;;;;;;17.75;4.18;;;21.90;99.90;;;;;;4959009;28;20034;-79
2022/08/02 06:25:11;;;;;;;12.07;3.50;;;22.00;99.90;;;;;;4957951;28;20058;-79
2022/08/02 06:27:39;;;;;;;9.65;3.80;;;22.00;99.90;;;;;;4950352;29;20034;-78
2022/08/02 06:30:08;;;;;;;6.97;3.28;;;22.00;99.90;;;;;;4954354;29;20433;-74
2022/08/02 06:32:33;;;;;;;14.80;4.38;;;22.10;99.90;;;;;;4954655;28;20023;-74
2022/08/02 06:35:00;;;;;;;10.52;3.65;;;22.10;99.90;;;;;;4954127;29;20035;-79
2022/08/02 06:37:40;;;;;;;13.68;3.38;;;22.30;99.90;;;;;;4937214;28;20023;-80
2022/08/02 06:40:08;;;;;;;11.60;3.60;;;22.30;99.90;;;;;;4938139;28;20035;-80
2022/08/02 06:42:50;;;;;;;14.50;4.00;;;22.30;99.90;;;;;;4965225;28;20479;-80
2022/08/02 06:45:16;;;;;;;;;;;22.30;99.90;;;;;;4939023;28;20035;-80
2022/08/02 06:47:42;;;;;;;13.52;2.97;;;22.40;99.90;;;;;;4954935;29;19965;-80
2022/08/02 06:50:09;;;;;;;12.20;4.03;;;22.60;99.90;;;;;;4954649;28;20066;-80
2022/08/02 06:52:35;;;;;;;19.40;3.67;;;22.50;99.90;;;;;;4953875;29;20027;-80
2022/08/02 06:55:03;;;;;;;15.65;3.30;;;22.60;99.90;;;;;;4953796;29;20031;-80
2022/08/02 06:57:29;;;;;;;12.90;3.85;;;22.60;99.90;;;;;;4954212;29;20035;-80
2022/08/02 06:59:55;;;;;;;7.25;3.13;;;22.60;99.90;;;;;;4954086;29;20034;-80
2022/08/02 07:02:21;;;;;;;10.18;3.40;;;22.70;99.90;;;;;;4954022;29;20019;-80
2022/08/02 07:04:47;;;;;;;16.30;3.90;;;22.80;99.90;;;;;;4954346;29;20035;-80
2022/08/02 07:07:13;;;;;;;16.70;4.03;;;22.80;99.90;;;;;;4953560;29;20053;-80
2022/08/02 07:09:39;;;;;;;15.45;4.05;;;22.70;99.90;;;;;;4953947;29;20400;-80
2022/08/02 07:12:05;;;;;;;21.38;3.83;;;22.90;99.90;;;;;;4953503;29;20035;-73
2022/08/02 07:14:31;;;;;;;15.95;3.85;;;22.90;99.90;;;;;;4954022;29;20495;-74
2022/08/02 07:16:57;;;;;;;9.88;3.47;;;23.00;99.90;;;;;;4953455;28;20099;-74
2022/08/02 07:19:23;;;;;;;10.98;3.45;;;23.10;99.90;;;;;;4953919;29;20027;-75
2022/08/02 07:21:48;;;;;;;16.45;3.60;;;23.10;99.90;;;;;;4953886;29;20031;-74
2022/08/02 07:24:14;;;;;;;8.85;3.00;;;23.10;99.90;;;;;;4953370;29;20042;-74
2022/08/02 07:26:40;;;;;;;14.43;3.75;;;23.10;99.90;;;;;;4953722;29;20074;-74
2022/08/02 07:29:05;;;;;;;15.50;3.47;;;23.10;99.90;;;;;;4953623;29;20166;-74
2022/08/02 07:31:31;;;;;;;10.13;2.88;;;23.30;99.90;;;;;;4953814;29;20029;-76
2022/08/02 07:33:57;;;;;;;7.72;2.92;;;23.40;99.90;;;;;;4936263;29;20020;-74
2022/08/02 07:36:22;;;;;;;7.80;3.08;;;23.40;99.90;;;;;;4936077;29;20034;-74
2022/08/02 07:38:48;;;;;;;8.73;3.50;;;23.50;99.90;;;;;;4953727;29;20035;-74
2022/08/02 07:41:14;;;;;;;6.55;3.63;;;23.60;99.90;;;;;;4953894;29;20050;-75
2022/08/02 07:43:40;;;;;;;9.05;3.60;;;23.60;99.90;;;;;;4953443;29;20054;-76
2022/08/02 07:46:06;;;;;;;11.32;3.20;;;23.60;99.90;;;;;;4953309;29;20027;-74
2022/08/02 07:48:31;;;;;;;9.70;3.45;;;23.70;99.90;;;;;;4953523;29;20038;-74
2022/08/02 07:50:57;;;;;;;8.93;3.80;;;23.80;99.90;;;;;;4953162;29;20107;-73
2022/08/02 07:53:22;;;;;;;10.60;3.58;;;23.80;99.90;;;;;;4953642;29;20432;-74
2022/08/02 07:55:48;;;;;;;10.07;2.78;;;23.90;99.90;;;;;;4953622;29;20027;-74
2022/08/02 07:58:15;;;;;;;6.35;2.92;;;23.90;99.90;;;;;;4953318;29;20082;-74
2022/08/02 08:00:42;;;;;;;8.57;2.70;;;23.90;99.90;;;;;;4936628;29;20035;-74
2022/08/02 08:03:08;;;;;;;5.57;2.90;;;24.00;99.90;;;;;;4953362;29;20066;-73
2022/08/02 08:05:33;;;;;;;7.65;2.88;;;24.10;99.90;;;;;;4953102;29;20476;-74
2022/08/02 08:07:59;;;;;;;9.55;3.15;;;24.30;99.90;;;;;;4953675;29;20031;-74
2022/08/02 08:10:25;;;;;;;7.18;3.25;;;24.40;99.90;;;;;;4953462;29;20062;-74
2022/08/02 08:12:50;;;;;;;7.63;3.10;;;24.70;99.90;;;;;;4953490;29;20027;-77
2022/08/02 08:15:16;;;;;;;8.45;2.88;;;24.80;99.90;;;;;;4953083;29;20027;-78
2022/08/02 08:17:41;;;;;;;8.25;3.28;;;25.10;99.90;;;;;;4954113;29;20240;-79
2022/08/02 08:20:08;;;;;;;8.05;2.67;;;25.40;99.90;;;;;;4952828;29;20584;-74
2022/08/02 08:22:33;;;;;;;6.00;2.53;;;25.50;99.10;;;;;;4953457;29;20399;-75
2022/08/02 08:24:59;;;;;;;9.93;2.60;;;25.80;98.60;;;;;;4953567;29;20027;-77
2022/08/02 08:27:24;;;;;;;5.57;2.80;;;26.30;98.10;;;;;;4953186;28;20028;-74
2022/08/02 08:29:50;;;;;;;5.72;2.78;;;26.60;97.30;;;;;;4956669;29;20034;-77
2022/08/02 08:32:16;;;;;;;9.73;3.10;;;26.80;95.60;;;;;;4956816;29;20031;-74
2022/08/02 08:34:42;;;;;;;10.68;2.78;;;26.90;94.40;;;;;;4956526;29;20110;-74
2022/08/02 08:37:08;;;;;;;6.95;2.90;;;27.30;94.00;;;;;;4956502;29;20031;-74
2022/08/02 08:39:33;;;;;;;11.27;3.03;;;27.60;92.90;;;;;;4956726;29;20400;-75
2022/08/02 08:41:59;;;;;;;6.63;3.05;;;27.80;92.00;;;;;;4956377;29;20098;-77
2022/08/02 08:44:26;;;;;;;9.43;2.97;;;27.90;91.20;;;;;;4955896;29;20037;-75
2022/08/02 08:46:53;;;;;;;12.27;2.40;;;28.20;90.30;;;;;;4956794;29;20023;-74
2022/08/02 08:49:35;;;;;;;9.82;3.22;;;28.30;88.70;;;;;;4955809;29;20019;-75
2022/08/02 08:52:04;;;;;;;8.48;2.85;;;28.50;86.30;;;;;;4955868;29;20087;-75
2022/08/02 08:54:31;;;;;;;11.85;2.78;;;28.80;85.00;;;;;;4956367;29;20031;-76
2022/08/02 08:56:58;;;;;;;6.70;3.05;;;29.10;82.50;;;;;;4956157;29;20086;-74
2022/08/02 08:59:24;;;;;;;10.02;3.00;;;29.10;82.20;;;;;;4956196;29;20511;-75
2022/08/02 09:01:50;;;;;;;12.85;2.80;;;29.30;79.60;;;;;;4956850;29;20027;-74
2022/08/02 09:04:17;;;;;;;10.18;2.70;;;29.10;78.70;;;;;;4955556;29;20480;-74
2022/08/02 09:06:43;;;;;;;13.43;2.60;;;29.50;78.20;;;;;;4956535;29;20020;-76
2022/08/02 09:09:08;;;;;;;8.88;3.22;;;29.60;75.60;;;;;;4955998;29;20085;-74
2022/08/02 09:11:34;;;;;;;6.80;2.60;;;29.90;75.30;;;;;;4956365;29;20032;-74
2022/08/02 09:14:01;;;;;;;9.15;2.50;;;30.00;72.80;;;;;;4955859;29;20023;-74
2022/08/02 09:16:38;;;;;;;11.68;3.10;;;30.40;70.80;;;;;;4938889;29;20035;-78
2022/08/02 09:19:20;;;;;;;4.78;2.60;;;30.60;70.60;;;;;;4954317;28;20530;-74
2022/08/02 09:21:49;;;;;;;7.25;2.80;;;30.70;68.70;;;;;;4959725;28;20391;-73
2022/08/02 09:24:22;;;;;;;7.75;2.67;;;31.00;67.00;;;;;;4954863;28;20375;-74
2022/08/02 09:26:49;;;;;;;15.52;2.90;;;31.20;67.00;;;;;;4959633;28;20018;-74
2022/08/02 09:29:17;;;;;;;8.52;2.22;;;31.30;65.50;;;;;;4974710;28;20050;-74
2022/08/02 09:31:43;;;;;;;3.75;2.20;;;31.10;63.60;;;;;;4962467;28;20046;-74
2022/08/02 09:34:09;;;;;;;6.40;2.75;;;31.20;61.50;;;;;;4954799;28;20106;-73
2022/08/02 09:36:40;;;;;;;7.28;2.65;;;31.40;61.90;;;;;;4955022;28;20034;-75
2022/08/02 09:39:09;;;;;;;6.40;2.88;;;31.70;59.30;;;;;;4954855;28;20098;-73
2022/08/02 09:41:39;;;;;;;8.32;2.85;;;31.70;58.30;;;;;;4954607;28;20031;-73
2022/08/02 09:44:06;;;;;;;5.82;2.90;;;32.00;58.30;;;;;;4970593;28;20046;-73
2022/08/02 09:46:40;;;;;;;9.65;2.58;;;31.90;57.10;;;;;;4955361;28;20034;-73
2022/08/02 09:49:15;;;;;;;9.18;2.60;;;32.20;56.70;;;;;;4954798;28;20024;-75
2022/08/02 09:51:50;;;;;;;7.20;2.67;;;31.90;54.80;;;;;;4961353;28;20366;-73
2022/08/02 09:54:20;;;;;;;6.18;2.40;;;32.10;55.80;;;;;;4973530;28;20057;-73
2022/08/02 09:56:51;;;;;;;7.38;2.33;;;32.30;55.30;;;;;;4968980;28;20031;-73
2022/08/02 09:59:19;;;;;;;7.18;2.65;;;32.40;53.00;;;;;;4949258;28;20027;-73
2022/08/02 10:01:47;;;;;;;7.40;2.10;;;32.40;53.20;;;;;;4959488;28;20034;-74
2022/08/02 10:04:14;;;;;;;7.97;2.80;;;32.50;52.60;;;;;;4965467;28;20032;-74
2022/08/02 10:06:43;;;;;;;8.75;2.33;;;32.50;50.70;;;;;;4966282;28;20030;-75
2022/08/02 10:09:11;;;;;;;5.45;2.17;;;32.60;50.90;;;;;;4958794;28;20019;-73
2022/08/02 10:11:37;;;;;;;6.18;2.25;;;32.70;50.30;;;;;;4954826;29;20380;-75
2022/08/02 10:14:04;;;;;;;6.45;2.45;;;32.70;51.60;;;;;;4955033;29;20051;-74
2022/08/02 10:16:33;;;;;;;9.07;2.25;;;32.60;49.50;;;;;;4934501;28;20030;-73
2022/08/02 10:19:00;;;;;;;5.68;1.98;;;33.00;49.60;;;;;;4945453;28;20031;-74
2022/08/02 10:21:45;;;;;;;5.15;1.90;;;32.90;46.40;;;;;;4958510;28;20033;-74
2022/08/02 10:24:20;;;;;;;7.00;2.10;;;33.20;46.90;;;;;;4957283;28;20015;-73
2022/08/02 10:26:46;;;;;;;7.45;2.28;;;33.00;44.70;;;;;;4958966;28;20023;-74
2022/08/02 10:29:29;;;;;;;5.40;2.05;;;33.10;45.40;;;;;;4938328;28;20043;-74
2022/08/02 10:32:11;;;;;;;6.82;2.05;;;33.00;44.90;;;;;;4960148;28;20506;-74
2022/08/02 10:34:45;;;;;;;4.90;2.13;;;33.20;43.90;;;;;;4966049;28;20498;-74
2022/08/02 10:37:13;;;;;;;7.40;2.03;;;33.30;42.80;;;;;;4965126;28;20038;-74
2022/08/02 10:39:44;;;;;;;9.27;1.70;;;33.30;40.30;;;;;;4961489;28;20055;-75
2022/08/02 10:42:10;;;;;;;6.25;1.63;;;33.40;41.40;;;;;;4965694;28;20113;-75
2022/08/02 10:44:37;;;;;;;7.88;1.83;;;32.80;40.50;;;;;;4962761;28;20489;-75
2022/08/02 10:47:22;;;;;;;3.72;1.73;;;33.50;40.80;;;;;;4973453;28;20022;-75
2022/08/02 10:49:57;;;;;;;4.97;1.95;;;33.70;39.60;;;;;;4957784;28;20023;-76
2022/08/02 10:52:27;;;;;;;36.30;2.80;;;34.00;40.60;;;;;;4940826;28;20031;-74
2022/08/02 10:54:57;;;;;;;5.50;1.95;;;34.00;38.90;;;;;;4936164;29;20068;-74
2022/08/02 10:57:28;;;;;;;11.93;2.20;;;34.00;38.70;;;;;;4935913;29;20527;-74
2022/08/02 11:00:08;;;;;;;4.65;1.88;;;33.60;35.30;;;;;;4934304;29;20400;-74
2022/08/02 11:02:42;;;;;;;7.85;1.70;;;33.90;37.40;;;;;;4934482;29;20439;-74
2022/08/02 11:05:09;;;;;;;4.53;1.63;;;34.00;35.90;;;;;;4931775;29;20043;-76
2022/08/02 11:07:42;;;;;;;6.55;1.73;;;34.30;34.00;;;;;;4937286;29;20060;-74
2022/08/02 11:10:37;;;;;;;4.93;1.60;;;34.30;34.00;;;;;;4935468;29;20542;-74
2022/08/02 11:13:09;;;;;;;2.20;1.10;;;34.10;29.70;;;;;;4933570;29;20032;-74
2022/08/02 11:15:57;;;;;;;5.63;1.20;;;34.40;30.40;;;;;;4936100;29;20055;-74
2022/08/02 11:18:43;;;;;;;6.07;1.60;;;34.40;30.40;;;;;;4932787;29;20399;-74
2022/08/02 11:21:25;;;;;;;1.90;1.20;;;34.40;31.00;;;;;;4934352;29;20070;-74
2022/08/02 11:23:52;;;;;;;8.57;1.65;;;34.70;31.00;;;;;;4934166;29;20024;-74
2022/08/02 11:26:29;;;;;;;7.00;1.40;;;34.50;28.80;;;;;;4935188;29;20099;-74
2022/08/02 11:28:55;;;;;;;6.38;1.75;;;34.20;28.70;;;;;;4934984;29;20047;-76
2022/08/02 11:31:21;;;;;;;7.78;1.70;;;34.30;28.80;;;;;;4934419;29;20028;-74
2022/08/02 11:33:49;;;;;;;7.55;1.95;;;34.50;31.00;;;;;;4934203;29;20444;-74
2022/08/02 11:36:16;;;;;;;9.35;2.15;;;34.80;31.30;;;;;;4936373;29;20032;-74
2022/08/02 11:38:42;;;;;;;5.57;1.88;;;35.10;32.00;;;;;;4935817;29;20023;-73
2022/08/02 11:41:08;;;;;;;5.30;1.75;;;35.00;31.50;;;;;;4937469;29;20059;-74
2022/08/02 11:43:35;;;;;;;2.88;1.50;;;35.00;30.60;;;;;;4936246;29;20032;-74
2022/08/02 11:46:10;;;;;;;7.65;1.33;;;34.90;29.30;;;;;;4932065;29;20024;-74
2022/08/02 11:48:38;;;;;;;3.90;1.23;;;34.80;28.20;;;;;;4937421;29;20027;-74
2022/08/02 11:51:04;;;;;;;41.83;1.77;;;34.50;25.80;;;;;;4938815;28;20504;-74
2022/08/02 11:53:40;;;;;;;4.00;1.30;;;34.80;25.00;;;;;;4955916;28;20024;-74
2022/08/02 11:56:06;;;;;;;4.05;1.38;;;35.00;25.30;;;;;;4950995;28;20027;-74
2022/08/02 11:58:32;;;;;;;3.63;1.30;;;35.00;25.60;;;;;;4954556;28;20027;-74
2022/08/02 12:00:57;;;;;;;6.85;1.50;;;35.20;25.20;;;;;;4955364;28;20466;-74
2022/08/02 12:03:23;;;;;;;10.45;1.40;;;35.30;25.20;;;;;;4955506;28;20027;-74
2022/08/02 12:05:50;;;;;;;3.63;1.27;;;35.10;25.20;;;;;;4965198;28;20031;-85
2022/08/02 12:08:18;;;;;;;3.47;1.10;;;35.30;24.80;;;;;;4946921;28;20110;-81
2022/08/02 12:10:48;;;;;;;3.50;1.50;;;35.30;25.60;;;;;;4956358;28;20090;-82
2022/08/02 12:13:14;;;;;;;5.28;1.30;;;35.20;26.10;;;;;;4956472;28;20047;-81
2022/08/02 12:15:44;;;;;;;3.72;1.48;;;35.30;26.10;;;;;;4971205;28;20154;-81
2022/08/02 12:21:25;;;;;;;6.18;1.20;;;35.40;25.10;;;;;;4961130;28;20038;-81
2022/08/02 12:23:52;;;;;;;6.63;1.48;;;35.40;24.90;;;;;;4963765;28;20046;-81
2022/08/02 12:26:17;;;;;;;2.92;1.25;;;35.50;25.20;;;;;;4960427;28;20027;-81
2022/08/02 12:28:43;;;;;;;4.60;1.17;;;35.50;24.90;;;;;;4964549;28;20082;-81
2022/08/02 12:31:14;;;;;;;8.10;1.40;;;35.70;24.70;;;;;;4975714;28;20093;-81
2022/08/02 12:33:51;;;;;;;5.50;1.38;;;35.70;24.30;;;;;;4973265;28;20541;-80
2022/08/02 12:36:21;;;;;;;7.18;1.30;;;35.80;23.30;;;;;;4957960;28;20058;-81
2022/08/02 12:38:58;;;;;;;3.20;1.13;;;35.60;23.60;;;;;;4967744;28;20085;-81
2022/08/02 12:41:26;;;;;;;10.00;1.20;;;35.90;23.70;;;;;;4974514;28;20102;-81
2022/08/02 12:43:52;;;;;;;7.70;1.30;;;35.50;23.40;;;;;;4970492;28;20443;-80
2022/08/02 12:46:21;;;;;;;4.07;1.30;;;36.00;24.00;;;;;;4967364;28;20046;-81
2022/08/02 12:48:46;;;;;;;3.30;1.33;;;35.60;23.00;;;;;;4962118;28;20027;-81
2022/08/02 12:51:24;;;;;;;3.17;1.10;;;36.10;23.40;;;;;;4962283;28;20526;-80
2022/08/02 12:53:52;;;;;;;2.95;1.30;;;36.30;22.40;;;;;;4971491;28;20521;-81
2022/08/02 12:56:32;;;;;;;1.40;0.90;;;36.20;21.50;;;;;;4960063;28;20093;-81
2022/08/02 12:58:58;;;;;;;1.15;0.90;;;36.60;21.40;;;;;;4972333;28;20050;-81
2022/08/02 13:01:26;;;;;;;3.80;1.10;;;36.70;20.70;;;;;;4963477;28;20395;-81